sensor_id;sensor_type;location;lat;lon;timestamp;temperature;humidity
9118;DHT22;4594;50.994;7.126;2022-12-07T00:01:20;8.30;59.40
9118;DHT22;4594;50.994;7.126;2022-12-07T00:03:53;8.30;59.30
9118;DHT22;4594;50.994;7.126;2022-12-07T00:06:22;8.30;59.40
9118;DHT22;4594;50.994;7.126;2022-12-07T00:08:48;8.40;59.50
9118;DHT22;4594;50.994;7.126;2022-12-07T00:11:16;8.30;59.50
9118;DHT22;4594;50.994;7.126;2022-12-07T00:13:45;8.30;59.40
9118;DHT22;4594;50.994;7.126;2022-12-07T00:16:17;8.30;59.50
9118;DHT22;4594;50.994;7.126;2022-12-07T00:18:45;8.30;59.20
9118;DHT22;4594;50.994;7.126;2022-12-07T00:23:42;8.30;59.50
9118;DHT22;4594;50.994;7.126;2022-12-07T00:26:15;8.30;59.50
9118;DHT22;4594;50.994;7.126;2022-12-07T00:28:50;8.40;59.40
9118;DHT22;4594;50.994;7.126;2022-12-07T00:31:22;8.40;59.60
9118;DHT22;4594;50.994;7.126;2022-12-07T00:33:50;8.40;59.60
9118;DHT22;4594;50.994;7.126;2022-12-07T00:36:18;8.40;59.60
9118;DHT22;4594;50.994;7.126;2022-12-07T00:38:46;8.40;59.50
9118;DHT22;4594;50.994;7.126;2022-12-07T00:41:14;8.40;59.60
9118;DHT22;4594;50.994;7.126;2022-12-07T00:43:42;8.40;59.50
9118;DHT22;4594;50.994;7.126;2022-12-07T00:46:10;8.40;59.60
9118;DHT22;4594;50.994;7.126;2022-12-07T00:48:37;8.40;59.60
9118;DHT22;4594;50.994;7.126;2022-12-07T00:51:04;8.40;59.90
9118;DHT22;4594;50.994;7.126;2022-12-07T00:53:31;8.40;59.60
9118;DHT22;4594;50.994;7.126;2022-12-07T00:56:08;8.40;59.60
9118;DHT22;4594;50.994;7.126;2022-12-07T00:58:35;8.40;59.30
9118;DHT22;4594;50.994;7.126;2022-12-07T01:01:01;8.40;59.60
9118;DHT22;4594;50.994;7.126;2022-12-07T01:03:29;8.40;59.60
9118;DHT22;4594;50.994;7.126;2022-12-07T01:05:56;8.40;59.70
9118;DHT22;4594;50.994;7.126;2022-12-07T01:08:23;8.40;59.60
9118;DHT22;4594;50.994;7.126;2022-12-07T01:10:58;8.40;59.60
9118;DHT22;4594;50.994;7.126;2022-12-07T01:13:29;8.50;59.20
9118;DHT22;4594;50.994;7.126;2022-12-07T01:16:00;8.40;59.70
9118;DHT22;4594;50.994;7.126;2022-12-07T01:18:28;8.40;59.30
9118;DHT22;4594;50.994;7.126;2022-12-07T01:21:10;8.50;59.70
9118;DHT22;4594;50.994;7.126;2022-12-07T01:23:38;8.50;59.20
9118;DHT22;4594;50.994;7.126;2022-12-07T01:26:07;8.50;59.70
9118;DHT22;4594;50.994;7.126;2022-12-07T01:28:36;8.50;59.60
9118;DHT22;4594;50.994;7.126;2022-12-07T01:31:08;8.50;59.60
9118;DHT22;4594;50.994;7.126;2022-12-07T01:33:42;8.50;59.30
9118;DHT22;4594;50.994;7.126;2022-12-07T01:36:19;8.50;59.60
9118;DHT22;4594;50.994;7.126;2022-12-07T01:38:59;8.50;59.30
9118;DHT22;4594;50.994;7.126;2022-12-07T01:41:29;8.50;59.60
9118;DHT22;4594;50.994;7.126;2022-12-07T01:46:50;8.50;58.90
9118;DHT22;4594;50.994;7.126;2022-12-07T01:49:31;8.50;59.30
9118;DHT22;4594;50.994;7.126;2022-12-07T01:52:25;8.50;58.90
9118;DHT22;4594;50.994;7.126;2022-12-07T01:54:59;8.50;59.10
9118;DHT22;4594;50.994;7.126;2022-12-07T01:57:28;8.50;59.40
9118;DHT22;4594;50.994;7.126;2022-12-07T01:59:56;8.50;59.60
9118;DHT22;4594;50.994;7.126;2022-12-07T02:02:27;8.40;59.60
9118;DHT22;4594;50.994;7.126;2022-12-07T02:04:55;8.50;59.50
9118;DHT22;4594;50.994;7.126;2022-12-07T02:07:25;8.50;59.60
9118;DHT22;4594;50.994;7.126;2022-12-07T02:09:51;8.50;59.60
9118;DHT22;4594;50.994;7.126;2022-12-07T02:12:17;8.50;59.60
9118;DHT22;4594;50.994;7.126;2022-12-07T02:14:44;8.50;59.60
9118;DHT22;4594;50.994;7.126;2022-12-07T02:17:21;8.50;59.50
9118;DHT22;4594;50.994;7.126;2022-12-07T02:29:01;8.50;58.80
9118;DHT22;4594;50.994;7.126;2022-12-07T02:32:09;8.50;59.30
9118;DHT22;4594;50.994;7.126;2022-12-07T02:34:52;8.50;59.50
9118;DHT22;4594;50.994;7.126;2022-12-07T02:37:53;8.50;59.10
9118;DHT22;4594;50.994;7.126;2022-12-07T02:40:48;8.50;58.90
9118;DHT22;4594;50.994;7.126;2022-12-07T02:43:31;8.50;58.60
9118;DHT22;4594;50.994;7.126;2022-12-07T02:46:22;8.50;59.30
9118;DHT22;4594;50.994;7.126;2022-12-07T02:48:53;8.50;59.30
9118;DHT22;4594;50.994;7.126;2022-12-07T02:51:21;8.50;59.70
9118;DHT22;4594;50.994;7.126;2022-12-07T02:53:47;8.50;59.40
9118;DHT22;4594;50.994;7.126;2022-12-07T03:05:46;8.50;58.70
9118;DHT22;4594;50.994;7.126;2022-12-07T03:08:55;8.50;58.70
9118;DHT22;4594;50.994;7.126;2022-12-07T03:12:06;8.50;58.50
9118;DHT22;4594;50.994;7.126;2022-12-07T03:15:07;8.50;58.30
9118;DHT22;4594;50.994;7.126;2022-12-07T03:17:39;8.50;58.30
9118;DHT22;4594;50.994;7.126;2022-12-07T03:20:14;8.50;59.10
9118;DHT22;4594;50.994;7.126;2022-12-07T03:22:45;8.50;59.10
9118;DHT22;4594;50.994;7.126;2022-12-07T03:25:15;8.50;59.20
9118;DHT22;4594;50.994;7.126;2022-12-07T03:28:05;8.50;59.20
9118;DHT22;4594;50.994;7.126;2022-12-07T03:30:54;8.50;58.90
9118;DHT22;4594;50.994;7.126;2022-12-07T03:33:44;8.50;59.10
9118;DHT22;4594;50.994;7.126;2022-12-07T03:39:39;8.50;58.60
9118;DHT22;4594;50.994;7.126;2022-12-07T03:42:10;8.50;58.20
9118;DHT22;4594;50.994;7.126;2022-12-07T03:44:39;8.50;59.00
9118;DHT22;4594;50.994;7.126;2022-12-07T03:50:18;8.50;58.30
9118;DHT22;4594;50.994;7.126;2022-12-07T03:53:18;8.50;58.50
9118;DHT22;4594;50.994;7.126;2022-12-07T03:55:51;8.50;58.40
9118;DHT22;4594;50.994;7.126;2022-12-07T03:58:20;8.50;59.10
9118;DHT22;4594;50.994;7.126;2022-12-07T04:00:48;8.50;59.00
9118;DHT22;4594;50.994;7.126;2022-12-07T04:03:15;8.50;59.00
9118;DHT22;4594;50.994;7.126;2022-12-07T04:05:42;8.50;59.00
9118;DHT22;4594;50.994;7.126;2022-12-07T04:08:08;8.50;59.00
9118;DHT22;4594;50.994;7.126;2022-12-07T04:10:34;8.50;59.00
9118;DHT22;4594;50.994;7.126;2022-12-07T04:13:00;8.50;58.90
9118;DHT22;4594;50.994;7.126;2022-12-07T04:15:26;8.50;58.90
9118;DHT22;4594;50.994;7.126;2022-12-07T04:17:52;8.50;58.90
9118;DHT22;4594;50.994;7.126;2022-12-07T04:20:19;8.50;58.90
9118;DHT22;4594;50.994;7.126;2022-12-07T04:22:45;8.50;58.90
9118;DHT22;4594;50.994;7.126;2022-12-07T04:25:11;8.50;58.90
9118;DHT22;4594;50.994;7.126;2022-12-07T04:27:37;8.50;58.90
9118;DHT22;4594;50.994;7.126;2022-12-07T04:30:03;8.50;58.90
9118;DHT22;4594;50.994;7.126;2022-12-07T04:32:29;8.40;58.80
9118;DHT22;4594;50.994;7.126;2022-12-07T04:34:55;8.50;58.80
9118;DHT22;4594;50.994;7.126;2022-12-07T04:37:21;8.40;58.70
9118;DHT22;4594;50.994;7.126;2022-12-07T04:39:47;8.40;58.70
9118;DHT22;4594;50.994;7.126;2022-12-07T04:42:13;8.40;58.70
9118;DHT22;4594;50.994;7.126;2022-12-07T04:44:38;8.40;58.70
9118;DHT22;4594;50.994;7.126;2022-12-07T04:47:04;8.40;58.70
9118;DHT22;4594;50.994;7.126;2022-12-07T04:49:30;8.40;58.70
9118;DHT22;4594;50.994;7.126;2022-12-07T04:51:56;8.40;58.70
9118;DHT22;4594;50.994;7.126;2022-12-07T04:54:21;8.40;58.70
9118;DHT22;4594;50.994;7.126;2022-12-07T04:56:47;8.40;58.80
9118;DHT22;4594;50.994;7.126;2022-12-07T04:59:15;8.40;58.80
9118;DHT22;4594;50.994;7.126;2022-12-07T05:01:41;8.40;58.70
9118;DHT22;4594;50.994;7.126;2022-12-07T05:04:08;8.40;58.70
9118;DHT22;4594;50.994;7.126;2022-12-07T05:06:34;8.40;58.70
9118;DHT22;4594;50.994;7.126;2022-12-07T05:09:00;8.40;58.60
9118;DHT22;4594;50.994;7.126;2022-12-07T05:11:26;8.40;58.60
9118;DHT22;4594;50.994;7.126;2022-12-07T05:14:10;8.40;58.60
9118;DHT22;4594;50.994;7.126;2022-12-07T05:16:38;8.40;58.50
9118;DHT22;4594;50.994;7.126;2022-12-07T05:19:05;8.40;58.50
9118;DHT22;4594;50.994;7.126;2022-12-07T05:21:31;8.40;58.50
9118;DHT22;4594;50.994;7.126;2022-12-07T05:23:57;8.40;58.50
9118;DHT22;4594;50.994;7.126;2022-12-07T05:26:23;8.40;58.60
9118;DHT22;4594;50.994;7.126;2022-12-07T05:28:54;8.40;58.60
9118;DHT22;4594;50.994;7.126;2022-12-07T05:31:21;8.40;58.60
9118;DHT22;4594;50.994;7.126;2022-12-07T05:33:48;8.40;58.60
9118;DHT22;4594;50.994;7.126;2022-12-07T05:36:14;8.40;58.60
9118;DHT22;4594;50.994;7.126;2022-12-07T05:38:40;8.40;58.60
9118;DHT22;4594;50.994;7.126;2022-12-07T05:41:07;8.40;58.60
9118;DHT22;4594;50.994;7.126;2022-12-07T05:43:54;8.40;58.60
9118;DHT22;4594;50.994;7.126;2022-12-07T05:46:20;8.40;58.60
9118;DHT22;4594;50.994;7.126;2022-12-07T05:48:46;8.40;58.60
9118;DHT22;4594;50.994;7.126;2022-12-07T05:51:12;8.40;58.50
9118;DHT22;4594;50.994;7.126;2022-12-07T05:53:37;8.40;58.50
9118;DHT22;4594;50.994;7.126;2022-12-07T05:56:03;8.30;58.30
9118;DHT22;4594;50.994;7.126;2022-12-07T05:58:30;8.40;58.40
9118;DHT22;4594;50.994;7.126;2022-12-07T06:01:14;8.40;58.40
9118;DHT22;4594;50.994;7.126;2022-12-07T06:03:39;8.40;58.40
9118;DHT22;4594;50.994;7.126;2022-12-07T06:06:05;8.30;58.60
9118;DHT22;4594;50.994;7.126;2022-12-07T06:08:31;8.30;58.70
9118;DHT22;4594;50.994;7.126;2022-12-07T06:10:56;8.30;58.80
9118;DHT22;4594;50.994;7.126;2022-12-07T06:13:40;8.40;58.90
9118;DHT22;4594;50.994;7.126;2022-12-07T06:16:06;8.40;58.90
9118;DHT22;4594;50.994;7.126;2022-12-07T06:18:32;8.40;58.90
9118;DHT22;4594;50.994;7.126;2022-12-07T06:20:59;8.40;58.90
9118;DHT22;4594;50.994;7.126;2022-12-07T06:23:24;8.40;58.90
9118;DHT22;4594;50.994;7.126;2022-12-07T06:25:50;8.40;58.90
9118;DHT22;4594;50.994;7.126;2022-12-07T06:28:16;8.40;58.90
9118;DHT22;4594;50.994;7.126;2022-12-07T06:30:41;8.40;58.90
9118;DHT22;4594;50.994;7.126;2022-12-07T06:33:07;8.40;58.90
9118;DHT22;4594;50.994;7.126;2022-12-07T06:35:33;8.50;58.90
9118;DHT22;4594;50.994;7.126;2022-12-07T06:37:59;8.50;58.90
9118;DHT22;4594;50.994;7.126;2022-12-07T06:40:24;8.50;58.80
9118;DHT22;4594;50.994;7.126;2022-12-07T06:42:50;8.50;58.80
9118;DHT22;4594;50.994;7.126;2022-12-07T06:45:16;8.50;58.80
9118;DHT22;4594;50.994;7.126;2022-12-07T06:47:41;8.50;58.70
9118;DHT22;4594;50.994;7.126;2022-12-07T06:50:08;8.50;58.80
9118;DHT22;4594;50.994;7.126;2022-12-07T06:52:34;8.50;58.70
9118;DHT22;4594;50.994;7.126;2022-12-07T06:54:59;8.50;58.60
9118;DHT22;4594;50.994;7.126;2022-12-07T06:57:26;8.50;58.60
9118;DHT22;4594;50.994;7.126;2022-12-07T06:59:51;8.50;58.50
9118;DHT22;4594;50.994;7.126;2022-12-07T07:02:17;8.50;58.50
9118;DHT22;4594;50.994;7.126;2022-12-07T07:04:43;8.50;58.50
9118;DHT22;4594;50.994;7.126;2022-12-07T07:07:09;8.50;58.50
9118;DHT22;4594;50.994;7.126;2022-12-07T07:09:35;8.50;58.50
9118;DHT22;4594;50.994;7.126;2022-12-07T07:12:00;8.50;58.60
9118;DHT22;4594;50.994;7.126;2022-12-07T07:14:26;8.50;58.60
9118;DHT22;4594;50.994;7.126;2022-12-07T07:16:52;8.50;58.50
9118;DHT22;4594;50.994;7.126;2022-12-07T07:19:18;8.50;58.40
9118;DHT22;4594;50.994;7.126;2022-12-07T07:21:43;8.50;58.30
9118;DHT22;4594;50.994;7.126;2022-12-07T07:24:09;8.50;58.20
9118;DHT22;4594;50.994;7.126;2022-12-07T07:26:35;8.40;58.10
9118;DHT22;4594;50.994;7.126;2022-12-07T07:29:00;8.40;58.20
9118;DHT22;4594;50.994;7.126;2022-12-07T07:31:26;8.40;58.50
9118;DHT22;4594;50.994;7.126;2022-12-07T07:33:51;8.40;58.40
9118;DHT22;4594;50.994;7.126;2022-12-07T07:36:18;8.40;58.50
9118;DHT22;4594;50.994;7.126;2022-12-07T07:38:43;8.50;58.60
9118;DHT22;4594;50.994;7.126;2022-12-07T07:41:09;8.40;58.50
9118;DHT22;4594;50.994;7.126;2022-12-07T07:43:35;8.40;58.40
9118;DHT22;4594;50.994;7.126;2022-12-07T07:46:00;8.40;58.30
9118;DHT22;4594;50.994;7.126;2022-12-07T07:48:26;8.40;58.30
9118;DHT22;4594;50.994;7.126;2022-12-07T07:50:52;8.40;58.70
9118;DHT22;4594;50.994;7.126;2022-12-07T07:53:17;8.40;58.40
9118;DHT22;4594;50.994;7.126;2022-12-07T07:55:53;8.40;58.50
9118;DHT22;4594;50.994;7.126;2022-12-07T07:58:20;8.40;58.00
9118;DHT22;4594;50.994;7.126;2022-12-07T08:00:46;8.50;58.60
9118;DHT22;4594;50.994;7.126;2022-12-07T08:03:12;8.50;58.70
9118;DHT22;4594;50.994;7.126;2022-12-07T08:05:38;8.50;58.70
9118;DHT22;4594;50.994;7.126;2022-12-07T08:08:04;8.50;58.80
9118;DHT22;4594;50.994;7.126;2022-12-07T08:10:30;8.50;58.90
9118;DHT22;4594;50.994;7.126;2022-12-07T08:12:57;8.50;58.90
9118;DHT22;4594;50.994;7.126;2022-12-07T08:15:44;8.60;59.00
9118;DHT22;4594;50.994;7.126;2022-12-07T08:18:12;8.60;58.80
9118;DHT22;4594;50.994;7.126;2022-12-07T08:20:39;8.60;59.00
9118;DHT22;4594;50.994;7.126;2022-12-07T08:23:06;8.60;59.00
9118;DHT22;4594;50.994;7.126;2022-12-07T08:25:33;8.60;58.90
9118;DHT22;4594;50.994;7.126;2022-12-07T08:27:59;8.60;59.00
9118;DHT22;4594;50.994;7.126;2022-12-07T08:30:26;8.70;59.10
9118;DHT22;4594;50.994;7.126;2022-12-07T08:32:52;8.70;59.10
9118;DHT22;4594;50.994;7.126;2022-12-07T08:35:18;8.70;59.00
9118;DHT22;4594;50.994;7.126;2022-12-07T08:37:44;8.70;59.00
9118;DHT22;4594;50.994;7.126;2022-12-07T08:40:12;8.70;59.00
9118;DHT22;4594;50.994;7.126;2022-12-07T08:42:42;8.70;58.80
9118;DHT22;4594;50.994;7.126;2022-12-07T08:45:12;8.80;59.00
9118;DHT22;4594;50.994;7.126;2022-12-07T08:47:41;8.80;59.00
9118;DHT22;4594;50.994;7.126;2022-12-07T08:50:12;8.80;58.90
9118;DHT22;4594;50.994;7.126;2022-12-07T08:52:39;8.80;59.00
9118;DHT22;4594;50.994;7.126;2022-12-07T08:55:07;8.80;59.00
9118;DHT22;4594;50.994;7.126;2022-12-07T08:57:35;8.80;59.00
9118;DHT22;4594;50.994;7.126;2022-12-07T09:00:03;8.80;59.00
9118;DHT22;4594;50.994;7.126;2022-12-07T09:02:31;8.80;58.90
9118;DHT22;4594;50.994;7.126;2022-12-07T09:04:57;8.80;58.90
9118;DHT22;4594;50.994;7.126;2022-12-07T09:07:23;8.90;59.00
9118;DHT22;4594;50.994;7.126;2022-12-07T09:09:50;8.90;59.00
9118;DHT22;4594;50.994;7.126;2022-12-07T09:12:16;8.90;59.10
9118;DHT22;4594;50.994;7.126;2022-12-07T09:14:41;8.90;59.10
9118;DHT22;4594;50.994;7.126;2022-12-07T09:17:08;8.90;59.20
9118;DHT22;4594;50.994;7.126;2022-12-07T09:19:36;8.90;59.20
9118;DHT22;4594;50.994;7.126;2022-12-07T09:22:02;9.00;59.40
9118;DHT22;4594;50.994;7.126;2022-12-07T09:24:30;9.00;59.40
9118;DHT22;4594;50.994;7.126;2022-12-07T09:26:57;9.00;59.40
9118;DHT22;4594;50.994;7.126;2022-12-07T09:29:23;9.00;59.50
9118;DHT22;4594;50.994;7.126;2022-12-07T09:31:48;9.10;59.60
9118;DHT22;4594;50.994;7.126;2022-12-07T09:34:14;9.10;59.60
9118;DHT22;4594;50.994;7.126;2022-12-07T09:36:40;9.10;59.60
9118;DHT22;4594;50.994;7.126;2022-12-07T09:39:06;9.20;59.70
9118;DHT22;4594;50.994;7.126;2022-12-07T09:41:32;9.20;59.60
9118;DHT22;4594;50.994;7.126;2022-12-07T09:44:04;9.20;59.70
9118;DHT22;4594;50.994;7.126;2022-12-07T09:46:36;9.30;59.30
9118;DHT22;4594;50.994;7.126;2022-12-07T09:49:07;9.30;59.30
9118;DHT22;4594;50.994;7.126;2022-12-07T09:51:37;9.30;59.60
9118;DHT22;4594;50.994;7.126;2022-12-07T09:54:03;9.40;59.80
9118;DHT22;4594;50.994;7.126;2022-12-07T09:56:29;9.40;59.60
9118;DHT22;4594;50.994;7.126;2022-12-07T09:59:00;9.40;59.70
9118;DHT22;4594;50.994;7.126;2022-12-07T10:01:30;9.40;59.30
9118;DHT22;4594;50.994;7.126;2022-12-07T10:04:09;9.50;59.60
9118;DHT22;4594;50.994;7.126;2022-12-07T10:06:48;9.50;59.00
9118;DHT22;4594;50.994;7.126;2022-12-07T10:09:17;9.50;60.00
9118;DHT22;4594;50.994;7.126;2022-12-07T10:12:07;9.50;59.90
9118;DHT22;4594;50.994;7.126;2022-12-07T10:14:37;9.60;59.20
9118;DHT22;4594;50.994;7.126;2022-12-07T10:17:29;9.60;60.10
9118;DHT22;4594;50.994;7.126;2022-12-07T10:20:23;9.70;59.20
9118;DHT22;4594;50.994;7.126;2022-12-07T10:25:28;9.80;59.40
9118;DHT22;4594;50.994;7.126;2022-12-07T10:28:19;9.80;59.80
9118;DHT22;4594;50.994;7.126;2022-12-07T10:33:55;9.80;58.90
9118;DHT22;4594;50.994;7.126;2022-12-07T10:36:27;9.90;59.00
9118;DHT22;4594;50.994;7.126;2022-12-07T10:39:14;9.90;59.80
9118;DHT22;4594;50.994;7.126;2022-12-07T10:41:58;9.90;58.80
9118;DHT22;4594;50.994;7.126;2022-12-07T10:44:30;9.90;58.70
9118;DHT22;4594;50.994;7.126;2022-12-07T10:50:02;10.00;58.30
9118;DHT22;4594;50.994;7.126;2022-12-07T11:07:08;10.00;57.90
9118;DHT22;4594;50.994;7.126;2022-12-07T11:09:59;10.00;57.60
9118;DHT22;4594;50.994;7.126;2022-12-07T11:21:12;10.10;58.30
9118;DHT22;4594;50.994;7.126;2022-12-07T11:23:48;10.10;57.90
9118;DHT22;4594;50.994;7.126;2022-12-07T11:38:17;10.20;57.80
9118;DHT22;4594;50.994;7.126;2022-12-07T11:40:50;10.20;58.40
9118;DHT22;4594;50.994;7.126;2022-12-07T11:43:29;10.20;58.50
9118;DHT22;4594;50.994;7.126;2022-12-07T11:46:03;10.20;58.50
9118;DHT22;4594;50.994;7.126;2022-12-07T11:48:41;10.20;58.80
9118;DHT22;4594;50.994;7.126;2022-12-07T11:51:18;10.20;58.30
9118;DHT22;4594;50.994;7.126;2022-12-07T11:53:56;10.20;58.30
9118;DHT22;4594;50.994;7.126;2022-12-07T11:56:28;10.20;58.50
9118;DHT22;4594;50.994;7.126;2022-12-07T11:59:10;10.20;58.30
9118;DHT22;4594;50.994;7.126;2022-12-07T12:01:58;10.20;57.20
9118;DHT22;4594;50.994;7.126;2022-12-07T12:07:27;10.20;57.40
9118;DHT22;4594;50.994;7.126;2022-12-07T12:10:02;10.20;58.20
9118;DHT22;4594;50.994;7.126;2022-12-07T12:15:33;10.20;57.70
9118;DHT22;4594;50.994;7.126;2022-12-07T12:18:42;10.30;58.30
9118;DHT22;4594;50.994;7.126;2022-12-07T12:21:27;10.30;57.50
9118;DHT22;4594;50.994;7.126;2022-12-07T12:24:10;10.30;58.10
9118;DHT22;4594;50.994;7.126;2022-12-07T12:26:52;10.30;57.50
9118;DHT22;4594;50.994;7.126;2022-12-07T12:42:56;10.20;56.40
9118;DHT22;4594;50.994;7.126;2022-12-07T12:47:55;10.20;57.60
9118;DHT22;4594;50.994;7.126;2022-12-07T12:50:38;10.20;57.80
9118;DHT22;4594;50.994;7.126;2022-12-07T12:53:14;10.20;57.20
9118;DHT22;4594;50.994;7.126;2022-12-07T12:59:22;10.20;57.20
9118;DHT22;4594;50.994;7.126;2022-12-07T13:15:50;10.30;57.90
9118;DHT22;4594;50.994;7.126;2022-12-07T13:31:49;10.50;58.10
9118;DHT22;4594;50.994;7.126;2022-12-07T13:34:40;10.50;58.00
9118;DHT22;4594;50.994;7.126;2022-12-07T13:37:29;10.50;56.70
9118;DHT22;4594;50.994;7.126;2022-12-07T13:39:59;10.50;56.90
9118;DHT22;4594;50.994;7.126;2022-12-07T13:42:37;10.50;57.90
9118;DHT22;4594;50.994;7.126;2022-12-07T13:45:28;10.50;58.00
9118;DHT22;4594;50.994;7.126;2022-12-07T13:48:48;10.50;56.30
9118;DHT22;4594;50.994;7.126;2022-12-07T13:51:21;10.50;56.20
9118;DHT22;4594;50.994;7.126;2022-12-07T13:53:54;10.40;56.70
9118;DHT22;4594;50.994;7.126;2022-12-07T13:56:34;10.40;56.90
9118;DHT22;4594;50.994;7.126;2022-12-07T13:59:02;10.30;56.80
9118;DHT22;4594;50.994;7.126;2022-12-07T14:01:30;10.30;56.90
9118;DHT22;4594;50.994;7.126;2022-12-07T14:04:20;10.30;56.70
9118;DHT22;4594;50.994;7.126;2022-12-07T14:06:55;10.30;55.60
9118;DHT22;4594;50.994;7.126;2022-12-07T14:09:23;10.30;57.10
9118;DHT22;4594;50.994;7.126;2022-12-07T14:11:53;10.30;57.00
9118;DHT22;4594;50.994;7.126;2022-12-07T14:14:29;10.20;56.90
9118;DHT22;4594;50.994;7.126;2022-12-07T14:17:17;10.20;56.30
9118;DHT22;4594;50.994;7.126;2022-12-07T14:22:31;10.20;56.30
9118;DHT22;4594;50.994;7.126;2022-12-07T14:25:14;10.10;56.50
9118;DHT22;4594;50.994;7.126;2022-12-07T14:28:01;10.10;57.20
9118;DHT22;4594;50.994;7.126;2022-12-07T14:30:32;10.10;55.90
9118;DHT22;4594;50.994;7.126;2022-12-07T14:33:04;10.10;56.70
9118;DHT22;4594;50.994;7.126;2022-12-07T14:35:31;10.10;56.70
9118;DHT22;4594;50.994;7.126;2022-12-07T14:37:57;10.10;57.10
9118;DHT22;4594;50.994;7.126;2022-12-07T14:40:28;10.00;56.90
9118;DHT22;4594;50.994;7.126;2022-12-07T14:43:16;10.00;56.70
9118;DHT22;4594;50.994;7.126;2022-12-07T14:45:43;10.00;55.50
9118;DHT22;4594;50.994;7.126;2022-12-07T14:48:13;10.10;57.00
9118;DHT22;4594;50.994;7.126;2022-12-07T14:50:43;9.90;57.30
9118;DHT22;4594;50.994;7.126;2022-12-07T14:53:17;9.90;57.70
9118;DHT22;4594;50.994;7.126;2022-12-07T14:55:47;9.90;57.60
9118;DHT22;4594;50.994;7.126;2022-12-07T14:58:17;9.90;57.70
9118;DHT22;4594;50.994;7.126;2022-12-07T15:00:44;9.90;57.20
9118;DHT22;4594;50.994;7.126;2022-12-07T15:03:10;9.90;57.70
9118;DHT22;4594;50.994;7.126;2022-12-07T15:05:38;9.80;57.60
9118;DHT22;4594;50.994;7.126;2022-12-07T15:08:04;9.80;57.60
9118;DHT22;4594;50.994;7.126;2022-12-07T15:10:32;9.80;57.60
9118;DHT22;4594;50.994;7.126;2022-12-07T15:13:00;9.80;57.40
9118;DHT22;4594;50.994;7.126;2022-12-07T15:15:47;9.80;57.50
9118;DHT22;4594;50.994;7.126;2022-12-07T15:18:14;9.80;57.60
9118;DHT22;4594;50.994;7.126;2022-12-07T15:20:40;9.70;57.60
9118;DHT22;4594;50.994;7.126;2022-12-07T15:23:06;9.80;57.60
9118;DHT22;4594;50.994;7.126;2022-12-07T15:25:32;9.70;57.60
9118;DHT22;4594;50.994;7.126;2022-12-07T15:27:58;9.70;57.60
9118;DHT22;4594;50.994;7.126;2022-12-07T15:30:24;9.70;57.60
9118;DHT22;4594;50.994;7.126;2022-12-07T15:32:51;9.70;57.60
9118;DHT22;4594;50.994;7.126;2022-12-07T15:35:17;9.70;57.50
9118;DHT22;4594;50.994;7.126;2022-12-07T15:37:42;9.60;57.50
9118;DHT22;4594;50.994;7.126;2022-12-07T15:40:09;9.60;57.60
9118;DHT22;4594;50.994;7.126;2022-12-07T15:42:35;9.60;57.60
9118;DHT22;4594;50.994;7.126;2022-12-07T15:45:02;9.60;57.60
9118;DHT22;4594;50.994;7.126;2022-12-07T15:47:35;9.60;57.50
9118;DHT22;4594;50.994;7.126;2022-12-07T15:50:04;9.60;57.40
9118;DHT22;4594;50.994;7.126;2022-12-07T15:52:31;9.60;57.20
9118;DHT22;4594;50.994;7.126;2022-12-07T15:54:57;9.50;57.20
9118;DHT22;4594;50.994;7.126;2022-12-07T15:57:22;9.50;57.00
9118;DHT22;4594;50.994;7.126;2022-12-07T15:59:48;9.50;56.70
9118;DHT22;4594;50.994;7.126;2022-12-07T16:02:14;9.40;56.20
9118;DHT22;4594;50.994;7.126;2022-12-07T16:04:39;9.40;56.10
9118;DHT22;4594;50.994;7.126;2022-12-07T16:07:05;9.30;55.90
9118;DHT22;4594;50.994;7.126;2022-12-07T16:09:31;9.20;55.80
9118;DHT22;4594;50.994;7.126;2022-12-07T16:11:57;9.20;56.20
9118;DHT22;4594;50.994;7.126;2022-12-07T16:14:23;9.10;56.00
9118;DHT22;4594;50.994;7.126;2022-12-07T16:16:49;9.10;56.20
9118;DHT22;4594;50.994;7.126;2022-12-07T16:19:14;9.00;56.30
9118;DHT22;4594;50.994;7.126;2022-12-07T16:21:40;9.00;56.30
9118;DHT22;4594;50.994;7.126;2022-12-07T16:24:07;9.00;56.30
9118;DHT22;4594;50.994;7.126;2022-12-07T16:26:35;8.90;56.30
9118;DHT22;4594;50.994;7.126;2022-12-07T16:29:01;8.90;56.30
9118;DHT22;4594;50.994;7.126;2022-12-07T16:31:27;8.90;56.40
9118;DHT22;4594;50.994;7.126;2022-12-07T16:33:55;8.90;56.40
9118;DHT22;4594;50.994;7.126;2022-12-07T16:36:23;8.80;56.30
9118;DHT22;4594;50.994;7.126;2022-12-07T16:38:50;8.80;56.30
9118;DHT22;4594;50.994;7.126;2022-12-07T16:41:16;8.80;56.30
9118;DHT22;4594;50.994;7.126;2022-12-07T16:43:42;8.70;56.20
9118;DHT22;4594;50.994;7.126;2022-12-07T16:46:07;8.70;56.20
9118;DHT22;4594;50.994;7.126;2022-12-07T16:48:38;8.70;56.20
9118;DHT22;4594;50.994;7.126;2022-12-07T16:51:09;8.70;55.90
9118;DHT22;4594;50.994;7.126;2022-12-07T16:53:38;8.60;56.20
9118;DHT22;4594;50.994;7.126;2022-12-07T16:56:13;8.70;56.50
9118;DHT22;4594;50.994;7.126;2022-12-07T16:58:42;8.60;55.90
9118;DHT22;4594;50.994;7.126;2022-12-07T17:01:10;8.60;56.60
9118;DHT22;4594;50.994;7.126;2022-12-07T17:03:37;8.60;56.70
9118;DHT22;4594;50.994;7.126;2022-12-07T17:06:02;8.50;56.80
9118;DHT22;4594;50.994;7.126;2022-12-07T17:08:28;8.60;56.90
9118;DHT22;4594;50.994;7.126;2022-12-07T17:10:54;8.50;56.90
9118;DHT22;4594;50.994;7.126;2022-12-07T17:13:19;8.60;57.10
9118;DHT22;4594;50.994;7.126;2022-12-07T17:16:05;8.50;57.00
9118;DHT22;4594;50.994;7.126;2022-12-07T17:18:35;8.60;57.00
9118;DHT22;4594;50.994;7.126;2022-12-07T17:21:06;8.60;56.80
9118;DHT22;4594;50.994;7.126;2022-12-07T17:23:33;8.60;56.90
9118;DHT22;4594;50.994;7.126;2022-12-07T17:26:12;8.60;57.30
9118;DHT22;4594;50.994;7.126;2022-12-07T17:28:41;8.60;56.50
9118;DHT22;4594;50.994;7.126;2022-12-07T17:31:09;8.60;57.30
9118;DHT22;4594;50.994;7.126;2022-12-07T17:33:36;8.60;57.20
9118;DHT22;4594;50.994;7.126;2022-12-07T17:36:28;8.60;57.30
9118;DHT22;4594;50.994;7.126;2022-12-07T17:38:56;8.60;56.80
9118;DHT22;4594;50.994;7.126;2022-12-07T17:41:27;8.60;57.40
9118;DHT22;4594;50.994;7.126;2022-12-07T17:44:18;8.60;57.10
9118;DHT22;4594;50.994;7.126;2022-12-07T17:46:47;8.60;57.00
9118;DHT22;4594;50.994;7.126;2022-12-07T17:49:16;8.70;57.50
9118;DHT22;4594;50.994;7.126;2022-12-07T17:51:42;8.60;57.60
9118;DHT22;4594;50.994;7.126;2022-12-07T17:54:26;8.70;57.60
9118;DHT22;4594;50.994;7.126;2022-12-07T17:56:53;8.70;57.60
9118;DHT22;4594;50.994;7.126;2022-12-07T17:59:19;8.70;57.60
9118;DHT22;4594;50.994;7.126;2022-12-07T18:01:45;8.70;57.60
9118;DHT22;4594;50.994;7.126;2022-12-07T18:04:11;8.70;57.60
9118;DHT22;4594;50.994;7.126;2022-12-07T18:06:38;8.70;57.60
9118;DHT22;4594;50.994;7.126;2022-12-07T18:09:04;8.70;57.60
9118;DHT22;4594;50.994;7.126;2022-12-07T18:11:30;8.70;57.60
9118;DHT22;4594;50.994;7.126;2022-12-07T18:13:57;8.70;57.60
9118;DHT22;4594;50.994;7.126;2022-12-07T18:16:25;8.70;57.60
9118;DHT22;4594;50.994;7.126;2022-12-07T18:18:53;8.70;57.50
9118;DHT22;4594;50.994;7.126;2022-12-07T18:21:21;8.70;57.60
9118;DHT22;4594;50.994;7.126;2022-12-07T18:23:51;8.70;57.50
9118;DHT22;4594;50.994;7.126;2022-12-07T18:26:21;8.70;57.50
9118;DHT22;4594;50.994;7.126;2022-12-07T18:28:48;8.70;57.50
9118;DHT22;4594;50.994;7.126;2022-12-07T18:31:15;8.70;57.60
9118;DHT22;4594;50.994;7.126;2022-12-07T18:33:43;8.70;57.60
9118;DHT22;4594;50.994;7.126;2022-12-07T18:36:09;8.70;57.40
9118;DHT22;4594;50.994;7.126;2022-12-07T18:38:36;8.70;57.50
9118;DHT22;4594;50.994;7.126;2022-12-07T18:41:03;8.70;57.50
9118;DHT22;4594;50.994;7.126;2022-12-07T18:43:32;8.70;57.50
9118;DHT22;4594;50.994;7.126;2022-12-07T18:45:57;8.70;57.60
9118;DHT22;4594;50.994;7.126;2022-12-07T18:48:23;8.70;57.60